createdAt,value
2022-09-17T00:00:03.268Z,8.50
2022-09-17T00:03:50.780Z,8.60
2022-09-17T00:07:33.374Z,8.70
2022-09-17T00:11:17.600Z,8.80
2022-09-17T00:15:00.695Z,8.80
2022-09-17T00:18:43.262Z,8.80
2022-09-17T00:22:27.560Z,8.60
2022-09-17T00:26:10.196Z,8.60
2022-09-17T00:29:52.882Z,8.50
2022-09-17T00:33:36.087Z,8.50
2022-09-17T00:37:19.108Z,8.60
2022-09-17T00:41:03.720Z,8.70
2022-09-17T00:44:50.931Z,8.80
2022-09-17T00:48:33.983Z,8.80
2022-09-17T00:52:20.987Z,8.80
2022-09-17T00:56:10.946Z,8.80
2022-09-17T00:59:53.769Z,8.80
2022-09-17T01:03:36.736Z,8.80
2022-09-17T01:07:36.171Z,8.90
2022-09-17T01:11:39.887Z,8.80
2022-09-17T01:15:32.839Z,8.80
2022-09-17T01:19:39.081Z,8.90
2022-09-17T01:23:48.282Z,8.80
2022-09-17T01:28:26.475Z,8.80
2022-09-17T01:32:15.348Z,8.80
2022-09-17T01:36:07.512Z,8.90
2022-09-17T01:39:54.857Z,8.80
2022-09-17T01:43:44.006Z,8.90
2022-09-17T01:47:32.828Z,8.80
2022-09-17T01:51:19.553Z,8.90
2022-09-17T01:55:07.077Z,8.80
2022-09-17T01:58:54.685Z,8.80
2022-09-17T02:02:44.431Z,8.70
2022-09-17T02:06:31.262Z,8.70
2022-09-17T02:10:18.432Z,8.60
2022-09-17T02:14:05.228Z,8.50
2022-09-17T02:17:53.228Z,8.40
2022-09-17T02:21:41.813Z,8.40
2022-09-17T02:25:30.144Z,8.30
2022-09-17T02:29:18.764Z,8.20
2022-09-17T02:33:06.950Z,8.20
2022-09-17T02:36:49.597Z,8.20
2022-09-17T02:40:37.206Z,8.10
2022-09-17T02:44:27.256Z,8.00
2022-09-17T02:48:35.070Z,8.00
2022-09-17T02:52:34.506Z,7.90
2022-09-17T02:56:25.456Z,7.80
2022-09-17T03:00:14.611Z,7.80
2022-09-17T03:04:00.815Z,7.80
2022-09-17T03:07:43.755Z,7.80
2022-09-17T03:11:26.820Z,7.80
2022-09-17T03:15:10.287Z,7.80
2022-09-17T03:18:52.759Z,7.80
2022-09-17T03:22:36.790Z,7.80
2022-09-17T03:26:19.947Z,7.80
2022-09-17T03:30:02.723Z,7.80
2022-09-17T03:33:45.555Z,7.80
2022-09-17T03:37:32.741Z,7.80
2022-09-17T03:41:16.869Z,7.80
2022-09-17T03:44:59.332Z,7.80
2022-09-17T03:48:42.354Z,7.90
2022-09-17T03:52:24.851Z,7.80
2022-09-17T03:56:08.756Z,7.90
2022-09-17T03:59:52.557Z,8.00
2022-09-17T04:03:35.106Z,7.80
2022-09-17T04:07:17.669Z,7.70
2022-09-17T04:11:00.522Z,7.70
2022-09-17T04:14:43.102Z,7.80
2022-09-17T04:18:27.282Z,7.80
2022-09-17T04:22:09.853Z,7.90
2022-09-17T04:25:52.676Z,7.90
2022-09-17T04:29:35.512Z,7.90
2022-09-17T04:33:18.090Z,7.90
2022-09-17T04:37:02.305Z,7.90
2022-09-17T04:40:44.987Z,7.80
2022-09-17T04:44:30.982Z,7.90
2022-09-17T04:48:13.729Z,7.90
2022-09-17T04:51:56.343Z,8.00
2022-09-17T04:55:40.383Z,7.90
2022-09-17T04:59:22.696Z,7.90
2022-09-17T05:03:05.563Z,7.90
2022-09-17T05:06:48.040Z,8.00
2022-09-17T05:10:30.853Z,8.00
2022-09-17T05:14:15.185Z,8.00
2022-09-17T05:17:58.014Z,8.10
2022-09-17T05:21:40.480Z,8.00
2022-09-17T05:25:24.862Z,8.10
2022-09-17T05:29:07.727Z,8.10
2022-09-17T05:33:00.316Z,8.10
2022-09-17T05:36:43.250Z,8.20
2022-09-17T05:40:27.213Z,8.30
2022-09-17T05:44:09.622Z,8.30
2022-09-17T05:47:57.547Z,8.20
2022-09-17T05:51:39.969Z,8.10
2022-09-17T05:55:24.354Z,8.20
2022-09-17T05:59:07.312Z,8.10
2022-09-17T06:02:57.758Z,8.10
2022-09-17T06:06:41.649Z,8.20
2022-09-17T06:10:24.477Z,8.40
2022-09-17T06:14:07.268Z,8.30
2022-09-17T06:17:50.039Z,8.40
2022-09-17T06:21:33.996Z,8.40
2022-09-17T06:25:16.632Z,8.30
2022-09-17T06:29:01.003Z,8.20
2022-09-17T06:32:43.570Z,8.20
2022-09-17T06:36:26.432Z,8.30
2022-09-17T06:40:11.830Z,8.40
2022-09-17T06:43:55.013Z,8.40
2022-09-17T06:47:37.899Z,8.10
2022-09-17T06:51:20.652Z,8.10
2022-09-17T06:55:03.638Z,8.20
2022-09-17T06:58:47.981Z,8.30
2022-09-17T07:02:30.440Z,8.40
2022-09-17T07:06:13.630Z,8.30
2022-09-17T07:09:56.387Z,8.30
2022-09-17T07:13:40.201Z,8.40
2022-09-17T07:17:24.327Z,8.30
2022-09-17T07:21:08.323Z,8.10
2022-09-17T07:24:51.059Z,8.00
2022-09-17T07:28:34.750Z,8.00
2022-09-17T07:32:17.636Z,8.10
2022-09-17T07:36:04.003Z,8.30
2022-09-17T07:39:46.688Z,8.60
2022-09-17T07:43:31.116Z,8.80
2022-09-17T07:47:14.186Z,8.80
2022-09-17T07:50:57.121Z,9.10
2022-09-17T07:54:41.248Z,9.40
2022-09-17T07:58:24.695Z,9.60
2022-09-17T08:02:10.245Z,9.60
2022-09-17T08:05:52.706Z,9.70
2022-09-17T08:09:35.808Z,9.40
2022-09-17T08:13:20.023Z,9.50
2022-09-17T08:17:02.683Z,9.70
2022-09-17T08:20:45.571Z,10.40
2022-09-17T08:24:28.436Z,10.80
2022-09-17T08:28:11.351Z,10.90
2022-09-17T08:31:55.510Z,10.80
2022-09-17T08:35:38.032Z,10.90
2022-09-17T08:39:20.780Z,10.70
2022-09-17T08:43:03.792Z,11.20
2022-09-17T08:46:51.118Z,11.10
2022-09-17T08:50:39.169Z,11.10
2022-09-17T08:54:32.790Z,11.20
2022-09-17T08:58:32.026Z,11.20
2022-09-17T09:02:27.359Z,11.00
2022-09-17T09:06:13.169Z,11.10
2022-09-17T09:10:07.544Z,10.90
2022-09-17T09:13:52.746Z,10.50
2022-09-17T09:17:42.851Z,10.60
2022-09-17T09:21:29.503Z,10.70
2022-09-17T09:25:20.348Z,10.70
2022-09-17T09:29:11.941Z,11.10
2022-09-17T09:33:01.180Z,11.00
2022-09-17T09:36:45.982Z,11.20
2022-09-17T09:40:35.693Z,11.50
2022-09-17T09:44:18.950Z,11.50
2022-09-17T09:48:08.546Z,11.20
2022-09-17T09:52:05.869Z,11.30
2022-09-17T09:56:04.192Z,10.90
2022-09-17T09:59:46.867Z,11.10
2022-09-17T10:03:32.236Z,11.30
2022-09-17T10:07:16.513Z,11.50
2022-09-17T10:11:01.719Z,12.00
2022-09-17T10:14:46.138Z,12.20
2022-09-17T10:18:29.123Z,12.30
2022-09-17T10:22:32.834Z,12.20
2022-09-17T10:26:23.860Z,12.60
2022-09-17T10:30:17.176Z,13.10
2022-09-17T10:34:01.627Z,12.80
2022-09-17T10:37:47.864Z,12.70
2022-09-17T10:41:30.909Z,12.70
2022-09-17T10:45:26.113Z,13.10
2022-09-17T10:49:12.988Z,12.80
2022-09-17T10:52:59.883Z,12.60
2022-09-17T10:56:47.688Z,12.20
2022-09-17T11:00:40.097Z,12.20
2022-09-17T11:04:44.239Z,12.00
2022-09-17T11:08:35.713Z,11.90
2022-09-17T11:12:29.813Z,12.20
2022-09-17T11:16:22.126Z,12.30
2022-09-17T11:20:09.985Z,12.50
2022-09-17T11:24:29.288Z,12.80
2022-09-17T11:28:27.503Z,13.30
2022-09-17T11:32:25.067Z,13.40
2022-09-17T11:36:14.280Z,13.50
2022-09-17T11:40:00.059Z,13.30
2022-09-17T11:43:49.013Z,13.00
2022-09-17T11:47:35.434Z,13.20
2022-09-17T11:51:29.031Z,13.70
2022-09-17T11:55:23.124Z,13.90
2022-09-17T11:59:14.343Z,14.00
2022-09-17T12:03:01.479Z,14.40
2022-09-17T12:06:53.189Z,14.20
2022-09-17T12:10:42.080Z,13.60
2022-09-17T12:14:30.129Z,12.90
2022-09-17T12:18:32.653Z,12.50
2022-09-17T12:22:19.603Z,12.50
2022-09-17T12:26:12.863Z,13.00
2022-09-17T12:30:13.453Z,13.30
2022-09-17T12:34:02.051Z,12.90
2022-09-17T12:37:51.062Z,12.20
2022-09-17T12:41:46.839Z,11.40
2022-09-17T12:45:59.016Z,10.50
2022-09-17T12:50:11.983Z,10.00
2022-09-17T12:54:04.889Z,9.80
2022-09-17T12:57:54.256Z,10.00
2022-09-17T13:01:46.901Z,10.20
2022-09-17T13:05:55.030Z,10.80
2022-09-17T13:10:04.563Z,11.70
2022-09-17T13:13:51.238Z,12.00
2022-09-17T13:17:46.691Z,12.10
2022-09-17T13:21:36.375Z,12.60
2022-09-17T13:25:22.451Z,12.50
2022-09-17T13:29:09.870Z,12.60
2022-09-17T13:32:55.069Z,12.50
2022-09-17T13:36:40.567Z,12.30
2022-09-17T13:40:24.569Z,12.30
2022-09-17T13:44:10.066Z,12.20
2022-09-17T13:47:56.030Z,12.20
2022-09-17T13:51:48.815Z,12.10
2022-09-17T13:55:36.936Z,12.00
2022-09-17T13:59:23.188Z,12.10
2022-09-17T14:03:40.689Z,12.00
2022-09-17T14:07:36.089Z,12.30
2022-09-17T14:11:38.163Z,12.30
2022-09-17T14:15:36.778Z,12.50
2022-09-17T14:19:25.181Z,12.70
2022-09-17T14:23:13.346Z,12.70
2022-09-17T14:27:14.124Z,13.10
2022-09-17T14:30:56.928Z,13.20
2022-09-17T14:34:39.776Z,12.90
2022-09-17T14:38:29.026Z,12.90
2022-09-17T14:42:18.472Z,12.50
2022-09-17T14:46:01.154Z,12.10
2022-09-17T14:49:43.623Z,12.10
2022-09-17T14:53:27.888Z,11.80
2022-09-17T14:57:25.663Z,12.20
2022-09-17T15:01:23.077Z,12.40
2022-09-17T15:05:19.635Z,12.40
2022-09-17T15:09:03.871Z,12.20
2022-09-17T15:12:48.221Z,12.90
2022-09-17T15:16:33.292Z,13.10
2022-09-17T15:20:20.307Z,13.10
2022-09-17T15:24:13.848Z,12.70
2022-09-17T15:27:58.467Z,12.30
2022-09-17T15:31:41.207Z,12.30
2022-09-17T15:35:28.666Z,12.10
2022-09-17T15:39:32.020Z,12.10
2022-09-17T15:43:19.697Z,11.90
2022-09-17T15:47:40.657Z,11.50
2022-09-17T15:51:27.214Z,11.80
2022-09-17T15:55:30.658Z,11.90
2022-09-17T15:59:32.990Z,12.40
2022-09-17T16:04:08.951Z,12.50
2022-09-17T16:07:53.179Z,12.10
2022-09-17T16:11:37.426Z,12.10
2022-09-17T16:15:20.922Z,12.00
2022-09-17T16:19:03.975Z,11.80
2022-09-17T16:22:48.093Z,11.50
2022-09-17T16:26:33.762Z,11.10
2022-09-17T16:30:21.090Z,11.10
2022-09-17T16:34:09.872Z,11.10
2022-09-17T16:37:58.994Z,11.00
2022-09-17T16:41:42.121Z,10.90
2022-09-17T16:45:29.007Z,10.70
2022-09-17T16:49:11.678Z,10.60
2022-09-17T16:53:04.865Z,10.60
2022-09-17T16:56:48.520Z,10.50
2022-09-17T17:00:32.958Z,10.40
2022-09-17T17:04:16.330Z,10.30
2022-09-17T17:08:02.160Z,10.30
2022-09-17T17:11:48.018Z,10.30
2022-09-17T17:15:38.374Z,10.20
2022-09-17T17:19:21.498Z,10.10
2022-09-17T17:23:09.523Z,10.00
2022-09-17T17:26:52.411Z,9.90
2022-09-17T17:30:38.532Z,9.80
2022-09-17T17:34:22.214Z,9.80
2022-09-17T17:38:05.061Z,9.80
2022-09-17T17:41:51.882Z,9.70
2022-09-17T17:45:39.212Z,9.60
2022-09-17T17:49:21.862Z,9.70
2022-09-17T17:53:04.616Z,9.60
2022-09-17T17:56:50.210Z,9.70
2022-09-17T18:00:41.349Z,9.50
2022-09-17T18:04:26.875Z,9.50
2022-09-17T18:08:09.771Z,9.50
2022-09-17T18:11:52.378Z,9.40
2022-09-17T18:15:37.040Z,9.40
2022-09-17T18:19:19.696Z,9.40
2022-09-17T18:23:02.853Z,9.40
2022-09-17T18:26:47.575Z,9.30
2022-09-17T18:30:30.339Z,9.20
2022-09-17T18:34:19.705Z,9.40
2022-09-17T18:38:02.149Z,9.40
2022-09-17T18:41:45.089Z,9.40
2022-09-17T18:45:28.001Z,9.40
2022-09-17T18:49:10.965Z,9.30
2022-09-17T18:52:59.739Z,9.30
2022-09-17T18:56:43.257Z,9.30
2022-09-17T19:00:26.506Z,9.10
2022-09-17T19:04:10.418Z,8.40
2022-09-17T19:07:55.199Z,8.20
2022-09-17T19:11:39.027Z,7.90
2022-09-17T19:15:24.102Z,7.60
2022-09-17T19:19:06.941Z,7.40
2022-09-17T19:22:50.856Z,7.30
2022-09-17T19:26:33.627Z,7.00
2022-09-17T19:30:18.560Z,6.80
2022-09-17T19:34:01.656Z,6.70
2022-09-17T19:37:44.270Z,6.60
2022-09-17T19:41:29.683Z,6.50
2022-09-17T19:45:12.356Z,6.50
2022-09-17T19:49:01.133Z,6.50
2022-09-17T19:52:44.536Z,6.60
2022-09-17T19:56:28.482Z,6.70
2022-09-17T20:00:12.265Z,6.80
2022-09-17T20:03:56.370Z,6.90
2022-09-17T20:07:39.070Z,7.20
2022-09-17T20:11:23.370Z,7.30
2022-09-17T20:15:07.832Z,7.40
2022-09-17T20:18:51.621Z,7.60
2022-09-17T20:22:35.930Z,7.70
2022-09-17T20:26:19.398Z,7.70
2022-09-17T20:30:02.102Z,7.80
2022-09-17T20:33:47.603Z,7.90
2022-09-17T20:38:33.004Z,7.80
2022-09-17T20:41:38.814Z,7.80
2022-09-17T20:45:23.924Z,7.80
2022-09-17T20:49:07.904Z,7.80
2022-09-17T20:52:56.051Z,7.80
2022-09-17T20:56:39.350Z,7.80
2022-09-17T21:00:29.249Z,7.70
2022-09-17T21:04:14.748Z,7.70
2022-09-17T21:07:59.828Z,7.70
2022-09-17T21:11:43.867Z,7.70
2022-09-17T21:15:29.753Z,7.70
2022-09-17T21:19:14.178Z,7.70
2022-09-17T21:22:57.017Z,7.70
2022-09-17T21:26:41.262Z,7.70
2022-09-17T21:30:25.913Z,7.70
2022-09-17T21:34:11.599Z,7.70
2022-09-17T21:37:55.953Z,7.70
2022-09-17T21:41:42.358Z,7.70
2022-09-17T21:45:27.623Z,7.70
2022-09-17T21:49:11.231Z,7.70
2022-09-17T21:52:53.940Z,7.70
2022-09-17T21:56:36.804Z,7.70
2022-09-17T22:00:23.192Z,7.70
2022-09-17T22:04:08.500Z,7.70
2022-09-17T22:07:51.555Z,7.70
2022-09-17T22:11:35.863Z,7.70
2022-09-17T22:15:18.733Z,7.70
2022-09-17T22:19:02.872Z,7.70
2022-09-17T22:22:47.319Z,7.70
2022-09-17T22:26:33.984Z,7.70
2022-09-17T22:30:17.183Z,7.70
2022-09-17T22:33:59.806Z,7.70
2022-09-17T22:52:43.078Z,7.70
2022-09-17T22:56:27.093Z,7.70
2022-09-17T23:00:12.074Z,7.80
2022-09-17T23:03:54.763Z,7.90
2022-09-17T23:07:37.910Z,8.00
2022-09-17T23:11:24.426Z,8.10
2022-09-17T23:15:07.782Z,8.10
2022-09-17T23:18:50.587Z,8.10
2022-09-17T23:22:33.105Z,8.10
2022-09-17T23:26:18.065Z,8.10
2022-09-17T23:30:01.700Z,8.00
2022-09-17T23:33:45.028Z,8.00
2022-09-17T23:37:28.559Z,8.10
2022-09-17T23:41:13.781Z,8.10
2022-09-17T23:44:56.454Z,8.20
2022-09-17T23:48:40.697Z,8.20
2022-09-17T23:52:23.268Z,8.20
2022-09-17T23:56:12.234Z,8.20
2022-09-17T23:59:54.847Z,8.20
